Forside
METAR-TAF:

METAR-TAF

Lufthavne :

Richard I. Bong Airport

Superior, Wisconsin, USA

Breddekreds: 46-41-23N, længdekreds: 092-05-41W, højde: 205 m

Aktuelle vejr

Denne rapport blev lavet for 12 minutter siden, kl. 17:35 UTC
Vind 14 kt fra vestsydvest
Temperatur 6°C
Fugtighed 49%
Tryk 1006 hPa
Sigt: 16.1 km
skyfri

METAR: KSUW 231735Z AUTO 25014KT 10SM CLR 06/M04 A2971 RMK AO2 T00571037

Tid: 11:47 (17:47 UTC)


TAF: fraværende

Vejrobservationer og prognoser fra mere end 4000 lufthavne (METAR og TAF).

De gule og røde prikker repræsenterer de meteorologiske stationer.

Flyt musen over at se navnet på stationen.

Så klik over at se vejr observationer og prognoser.

At skifte det kort: Klik på de grønne knapper med et sort kors for at zoome ind; på den grønne knap med en bindestreg for at zoome ud; eller på de grønne pile for tilstødende kort.


METAR-TAF: